sensor_id;sensor_type;location;lat;lon;timestamp;pressure;altitude;pressure_sealevel;temperature;humidity
79150;BME280;68563;45.644;13.782;2023-11-18T00:00:24;101254.03;;;11.85;28.96
79150;BME280;68563;45.644;13.782;2023-11-18T00:02:50;101253.19;;;11.79;28.96
79150;BME280;68563;45.644;13.782;2023-11-18T00:05:15;101245.53;;;11.65;29.19
79150;BME280;68563;45.644;13.782;2023-11-18T00:07:41;101254.13;;;11.71;29.01
79150;BME280;68563;45.644;13.782;2023-11-18T00:10:06;101242.09;;;11.62;29.34
79150;BME280;68563;45.644;13.782;2023-11-18T00:12:33;101255.00;;;11.70;29.01
79150;BME280;68563;45.644;13.782;2023-11-18T00:15:03;101249.84;;;11.63;29.71
79150;BME280;68563;45.644;13.782;2023-11-18T00:17:30;101250.72;;;11.62;29.33
79150;BME280;68563;45.644;13.782;2023-11-18T00:19:55;101249.03;;;11.58;29.69
79150;BME280;68563;45.644;13.782;2023-11-18T00:22:21;101244.72;;;11.57;29.53
79150;BME280;68563;45.644;13.782;2023-11-18T00:24:46;101260.28;;;11.57;29.93
79150;BME280;68563;45.644;13.782;2023-11-18T00:27:11;101252.44;;;11.63;30.42
79150;BME280;68563;45.644;13.782;2023-11-18T00:29:40;101263.66;;;11.70;30.18
79150;BME280;68563;45.644;13.782;2023-11-18T00:32:06;101261.03;;;11.69;31.13
79150;BME280;68563;45.644;13.782;2023-11-18T00:34:34;101267.09;;;11.74;32.44
79150;BME280;68563;45.644;13.782;2023-11-18T00:37:00;101272.25;;;11.75;33.83
79150;BME280;68563;45.644;13.782;2023-11-18T00:39:25;101273.97;;;11.76;34.93
79150;BME280;68563;45.644;13.782;2023-11-18T00:41:52;101288.66;;;11.76;36.08
79150;BME280;68563;45.644;13.782;2023-11-18T00:44:17;101305.09;;;11.81;36.38
79150;BME280;68563;45.644;13.782;2023-11-18T00:46:43;101319.78;;;11.84;36.21
79150;BME280;68563;45.644;13.782;2023-11-18T00:49:08;101321.47;;;11.89;35.45
79150;BME280;68563;45.644;13.782;2023-11-18T00:51:34;101325.81;;;11.84;33.79
79150;BME280;68563;45.644;13.782;2023-11-18T00:53:59;101323.38;;;11.64;33.72
79150;BME280;68563;45.644;13.782;2023-11-18T00:56:27;101342.38;;;11.66;33.99
79150;BME280;68563;45.644;13.782;2023-11-18T00:58:54;101352.81;;;11.58;34.56
79150;BME280;68563;45.644;13.782;2023-11-18T01:01:19;101346.75;;;11.59;34.56
79150;BME280;68563;45.644;13.782;2023-11-18T01:03:45;101347.66;;;11.52;34.11
79150;BME280;68563;45.644;13.782;2023-11-18T01:06:11;101339.91;;;11.46;34.53
79150;BME280;68563;45.644;13.782;2023-11-18T01:08:37;101333.06;;;11.32;34.31
79150;BME280;68563;45.644;13.782;2023-11-18T01:11:02;101349.47;;;11.34;34.51
79150;BME280;68563;45.644;13.782;2023-11-18T01:13:29;101348.66;;;11.28;35.01
79150;BME280;68563;45.644;13.782;2023-11-18T01:15:55;101357.28;;;11.27;35.00
79150;BME280;68563;45.644;13.782;2023-11-18T01:18:20;101356.44;;;11.26;35.45
79150;BME280;68563;45.644;13.782;2023-11-18T01:20:46;101373.69;;;11.33;35.92
79150;BME280;68563;45.644;13.782;2023-11-18T01:23:12;101383.09;;;11.53;36.26
79150;BME280;68563;45.644;13.782;2023-11-18T01:25:37;101371.03;;;11.43;36.62
79150;BME280;68563;45.644;13.782;2023-11-18T01:28:05;101383.19;;;11.33;35.54
79150;BME280;68563;45.644;13.782;2023-11-18T01:30:30;101384.06;;;11.27;34.68
79150;BME280;68563;45.644;13.782;2023-11-18T01:32:56;101376.34;;;11.20;35.27
79150;BME280;68563;45.644;13.782;2023-11-18T01:35:22;101387.56;;;11.26;35.33
79150;BME280;68563;45.644;13.782;2023-11-18T01:37:51;101393.59;;;11.27;35.51
79150;BME280;68563;45.644;13.782;2023-11-18T01:40:16;101385.78;;;11.28;35.26
79150;BME280;68563;45.644;13.782;2023-11-18T01:42:43;101387.56;;;11.20;35.72
79150;BME280;68563;45.644;13.782;2023-11-18T01:45:09;101378.06;;;11.21;36.50
79150;BME280;68563;45.644;13.782;2023-11-18T01:47:36;101387.56;;;11.22;36.85
79150;BME280;68563;45.644;13.782;2023-11-18T01:50:02;101382.41;;;11.14;37.11
79150;BME280;68563;45.644;13.782;2023-11-18T01:52:31;101384.97;;;11.20;37.40
79150;BME280;68563;45.644;13.782;2023-11-18T01:54:56;101385.03;;;11.05;37.31
79150;BME280;68563;45.644;13.782;2023-11-18T01:57:22;101385.03;;;11.05;36.69
79150;BME280;68563;45.644;13.782;2023-11-18T01:59:48;101387.63;;;11.03;37.33
79150;BME280;68563;45.644;13.782;2023-11-18T02:02:13;101388.50;;;11.00;37.10
79150;BME280;68563;45.644;13.782;2023-11-18T02:04:39;101391.97;;;10.98;37.25
79150;BME280;68563;45.644;13.782;2023-11-18T02:07:04;101389.38;;;10.96;37.05
79150;BME280;68563;45.644;13.782;2023-11-18T02:09:34;101392.84;;;10.95;37.07
79150;BME280;68563;45.644;13.782;2023-11-18T02:14:45;101398.84;;;11.14;37.54
79150;BME280;68563;45.644;13.782;2023-11-18T02:17:14;101403.13;;;11.26;37.49
79150;BME280;68563;45.644;13.782;2023-11-18T02:19:40;101392.75;;;11.23;37.52
79150;BME280;68563;45.644;13.782;2023-11-18T02:22:06;101396.22;;;11.17;37.18
79150;BME280;68563;45.644;13.782;2023-11-18T02:24:33;101397.06;;;11.21;37.33
79150;BME280;68563;45.644;13.782;2023-11-18T02:27:03;101395.34;;;11.17;36.56
79150;BME280;68563;45.644;13.782;2023-11-18T02:29:42;101400.59;;;11.00;36.79
79150;BME280;68563;45.644;13.782;2023-11-18T02:32:20;101412.72;;;10.92;36.87
79150;BME280;68563;45.644;13.782;2023-11-18T02:35:15;101408.41;;;10.84;37.27
79150;BME280;68563;45.644;13.782;2023-11-18T02:37:44;101413.56;;;10.94;37.55
79150;BME280;68563;45.644;13.782;2023-11-18T02:40:39;101411.88;;;10.82;37.31
79150;BME280;68563;45.644;13.782;2023-11-18T02:43:07;101416.16;;;10.92;36.85
79150;BME280;68563;45.644;13.782;2023-11-18T02:45:35;101423.09;;;10.79;36.77
79150;BME280;68563;45.644;13.782;2023-11-18T02:48:01;101412.75;;;10.65;37.16
79150;BME280;68563;45.644;13.782;2023-11-18T02:50:28;101412.75;;;10.73;37.73
79150;BME280;68563;45.644;13.782;2023-11-18T02:52:54;101417.94;;;10.70;37.75
79150;BME280;68563;45.644;13.782;2023-11-18T02:55:19;101423.97;;;10.75;37.80
79150;BME280;68563;45.644;13.782;2023-11-18T02:57:50;101420.50;;;10.82;37.92
79150;BME280;68563;45.644;13.782;2023-11-18T03:00:18;101418.78;;;10.74;37.81
79150;BME280;68563;45.644;13.782;2023-11-18T03:02:46;101414.50;;;10.65;38.04
79150;BME280;68563;45.644;13.782;2023-11-18T03:05:13;101415.34;;;10.68;38.11
79150;BME280;68563;45.644;13.782;2023-11-18T03:07:46;101414.50;;;10.69;37.95
79150;BME280;68563;45.644;13.782;2023-11-18T03:10:17;101410.16;;;10.65;38.24
79150;BME280;68563;45.644;13.782;2023-11-18T03:12:50;101412.75;;;10.73;38.30
79150;BME280;68563;45.644;13.782;2023-11-18T03:15:16;101414.47;;;10.77;38.46
79150;BME280;68563;45.644;13.782;2023-11-18T03:17:46;101417.06;;;10.77;38.24
79150;BME280;68563;45.644;13.782;2023-11-18T03:20:14;101422.25;;;10.73;37.81
79150;BME280;68563;45.644;13.782;2023-11-18T03:22:43;101417.94;;;10.70;38.49
79150;BME280;68563;45.644;13.782;2023-11-18T03:25:09;101425.69;;;10.90;38.02
79150;BME280;68563;45.644;13.782;2023-11-18T03:27:34;101432.59;;;10.79;37.31
79150;BME280;68563;45.644;13.782;2023-11-18T03:30:00;101434.34;;;10.71;37.35
79150;BME280;68563;45.644;13.782;2023-11-18T03:32:25;101439.50;;;10.78;37.70
79150;BME280;68563;45.644;13.782;2023-11-18T03:34:51;101437.78;;;10.76;37.25
79150;BME280;68563;45.644;13.782;2023-11-18T03:37:16;101434.34;;;10.69;37.67
79150;BME280;68563;45.644;13.782;2023-11-18T03:39:42;101431.75;;;10.64;37.75
79150;BME280;68563;45.644;13.782;2023-11-18T03:42:07;101440.41;;;10.59;37.47
79150;BME280;68563;45.644;13.782;2023-11-18T03:44:33;101448.16;;;10.45;37.70
79150;BME280;68563;45.644;13.782;2023-11-18T03:46:59;101459.38;;;10.53;37.48
79150;BME280;68563;45.644;13.782;2023-11-18T03:49:24;101458.50;;;10.45;37.94
79150;BME280;68563;45.644;13.782;2023-11-18T03:51:49;101452.47;;;10.50;37.79
79150;BME280;68563;45.644;13.782;2023-11-18T03:54:15;101451.63;;;10.51;37.72
79150;BME280;68563;45.644;13.782;2023-11-18T03:56:40;101436.94;;;10.44;38.06
79150;BME280;68563;45.644;13.782;2023-11-18T03:59:05;101446.44;;;10.53;38.06
79150;BME280;68563;45.644;13.782;2023-11-18T04:01:31;101453.34;;;10.48;37.97
79150;BME280;68563;45.644;13.782;2023-11-18T04:03:57;101452.47;;;10.46;38.32
79150;BME280;68563;45.644;13.782;2023-11-18T04:06:23;101444.72;;;10.52;38.34
79150;BME280;68563;45.644;13.782;2023-11-18T04:08:50;101454.19;;;10.59;38.67
79150;BME280;68563;45.644;13.782;2023-11-18T04:11:15;101462.84;;;10.66;39.32
79150;BME280;68563;45.644;13.782;2023-11-18T04:13:41;101455.06;;;10.61;39.36
79150;BME280;68563;45.644;13.782;2023-11-18T04:16:11;101471.47;;;10.62;39.09
79150;BME280;68563;45.644;13.782;2023-11-18T04:18:41;101468.88;;;10.49;38.90
79150;BME280;68563;45.644;13.782;2023-11-18T04:21:08;101471.47;;;10.43;39.01
79150;BME280;68563;45.644;13.782;2023-11-18T04:23:40;101473.19;;;10.44;39.41
79150;BME280;68563;45.644;13.782;2023-11-18T04:26:06;101468.88;;;10.42;39.24
79150;BME280;68563;45.644;13.782;2023-11-18T04:28:32;101474.00;;;10.32;39.50
79150;BME280;68563;45.644;13.782;2023-11-18T04:30:58;101474.03;;;10.35;39.31
79150;BME280;68563;45.644;13.782;2023-11-18T04:33:23;101461.94;;;10.28;39.39
79150;BME280;68563;45.644;13.782;2023-11-18T04:35:50;101474.00;;;10.23;39.38
79150;BME280;68563;45.644;13.782;2023-11-18T04:38:16;101477.47;;;10.34;39.77
79150;BME280;68563;45.644;13.782;2023-11-18T04:40:42;101481.75;;;10.17;39.47
79150;BME280;68563;45.644;13.782;2023-11-18T04:43:10;101484.34;;;10.28;39.72
79150;BME280;68563;45.644;13.782;2023-11-18T04:45:36;101482.63;;;10.31;39.22
79150;BME280;68563;45.644;13.782;2023-11-18T04:48:02;101493.00;;;10.33;39.50
79150;BME280;68563;45.644;13.782;2023-11-18T04:50:29;101494.75;;;10.35;39.10
79150;BME280;68563;45.644;13.782;2023-11-18T04:52:55;101488.69;;;10.27;38.97
79150;BME280;68563;45.644;13.782;2023-11-18T04:55:21;101492.19;;;10.38;38.91
79150;BME280;68563;45.644;13.782;2023-11-18T04:57:47;101496.50;;;10.43;38.97
79150;BME280;68563;45.644;13.782;2023-11-18T05:00:13;101499.94;;;10.37;38.77
79150;BME280;68563;45.644;13.782;2023-11-18T05:02:41;101507.72;;;10.37;39.15
79150;BME280;68563;45.644;13.782;2023-11-18T05:05:08;101495.59;;;10.36;39.13
79150;BME280;68563;45.644;13.782;2023-11-18T05:07:34;101517.16;;;10.30;38.96
79150;BME280;68563;45.644;13.782;2023-11-18T05:10:01;101505.94;;;10.33;39.11
79150;BME280;68563;45.644;13.782;2023-11-18T05:12:26;101502.50;;;10.31;39.54
79150;BME280;68563;45.644;13.782;2023-11-18T05:14:55;101501.69;;;10.38;39.49
79150;BME280;68563;45.644;13.782;2023-11-18T05:17:22;101498.22;;;10.48;39.23
79150;BME280;68563;45.644;13.782;2023-11-18T05:19:48;101505.13;;;10.43;38.73
79150;BME280;68563;45.644;13.782;2023-11-18T05:22:13;101508.59;;;10.45;38.41
79150;BME280;68563;45.644;13.782;2023-11-18T05:24:38;101504.28;;;10.38;38.49
79150;BME280;68563;45.644;13.782;2023-11-18T05:27:04;101518.88;;;10.33;38.39
79150;BME280;68563;45.644;13.782;2023-11-18T05:29:30;101496.44;;;10.22;38.48
79150;BME280;68563;45.644;13.782;2023-11-18T05:31:56;101504.19;;;10.13;38.69
79150;BME280;68563;45.644;13.782;2023-11-18T05:34:22;101504.19;;;10.18;38.52
79150;BME280;68563;45.644;13.782;2023-11-18T05:36:48;101503.31;;;10.08;38.98
79150;BME280;68563;45.644;13.782;2023-11-18T05:39:16;101505.03;;;10.11;39.20
79150;BME280;68563;45.644;13.782;2023-11-18T05:41:42;101493.84;;;10.24;39.39
79150;BME280;68563;45.644;13.782;2023-11-18T05:44:11;101498.16;;;10.20;39.33
79150;BME280;68563;45.644;13.782;2023-11-18T05:46:43;101484.38;;;10.29;39.34
79150;BME280;68563;45.644;13.782;2023-11-18T05:49:11;101488.69;;;10.35;38.96
79150;BME280;68563;45.644;13.782;2023-11-18T05:51:39;101486.94;;;10.34;39.64
79150;BME280;68563;45.644;13.782;2023-11-18T05:54:08;101487.81;;;10.22;39.56
79150;BME280;68563;45.644;13.782;2023-11-18T05:56:34;101490.41;;;10.24;39.57
79150;BME280;68563;45.644;13.782;2023-11-18T05:58:59;101475.75;;;10.26;40.35
79150;BME280;68563;45.644;13.782;2023-11-18T06:01:28;101476.66;;;10.37;40.25
79150;BME280;68563;45.644;13.782;2023-11-18T06:03:53;101477.47;;;10.36;40.42
79150;BME280;68563;45.644;13.782;2023-11-18T06:06:18;101493.06;;;10.41;40.75
79150;BME280;68563;45.644;13.782;2023-11-18T06:08:46;101496.50;;;10.43;40.87
79150;BME280;68563;45.644;13.782;2023-11-18T06:11:14;101499.09;;;10.46;40.74
79150;BME280;68563;45.644;13.782;2023-11-18T06:16:11;101496.50;;;10.40;40.58
79150;BME280;68563;45.644;13.782;2023-11-18T06:18:40;101510.31;;;10.51;40.47
79150;BME280;68563;45.644;13.782;2023-11-18T06:21:06;101512.06;;;10.49;40.36
79150;BME280;68563;45.644;13.782;2023-11-18T06:23:31;101520.66;;;10.51;40.17
79150;BME280;68563;45.644;13.782;2023-11-18T06:25:58;101520.66;;;10.43;40.47
79150;BME280;68563;45.644;13.782;2023-11-18T06:28:25;101514.63;;;10.41;40.15
79150;BME280;68563;45.644;13.782;2023-11-18T06:30:52;101520.63;;;10.32;40.30
79150;BME280;68563;45.644;13.782;2023-11-18T06:33:17;101530.13;;;10.36;40.43
79150;BME280;68563;45.644;13.782;2023-11-18T06:35:43;101536.22;;;10.48;40.84
79150;BME280;68563;45.644;13.782;2023-11-18T06:38:10;101537.09;;;10.45;40.90
79150;BME280;68563;45.644;13.782;2023-11-18T06:40:38;101544.00;;;10.46;40.65
79150;BME280;68563;45.644;13.782;2023-11-18T06:43:03;101550.88;;;10.46;40.79
79150;BME280;68563;45.644;13.782;2023-11-18T06:45:36;101551.75;;;10.54;40.85
79150;BME280;68563;45.644;13.782;2023-11-18T06:48:03;101556.97;;;10.59;40.59
79150;BME280;68563;45.644;13.782;2023-11-18T06:50:30;101556.97;;;10.73;40.57
79150;BME280;68563;45.644;13.782;2023-11-18T06:52:57;101558.66;;;11.31;38.71
79150;BME280;68563;45.644;13.782;2023-11-18T06:55:24;101550.69;;;11.93;37.37
79150;BME280;68563;45.644;13.782;2023-11-18T06:57:51;101541.59;;;12.74;35.79
79150;BME280;68563;45.644;13.782;2023-11-18T07:00:17;101546.34;;;13.24;35.16
79150;BME280;68563;45.644;13.782;2023-11-18T07:02:43;101540.41;;;13.92;34.17
79150;BME280;68563;45.644;13.782;2023-11-18T07:05:09;101546.16;;;14.16;33.56
79150;BME280;68563;45.644;13.782;2023-11-18T07:07:34;101540.28;;;14.61;32.72
79150;BME280;68563;45.644;13.782;2023-11-18T07:10:00;101546.63;;;15.02;32.42
79150;BME280;68563;45.644;13.782;2023-11-18T07:12:25;101552.25;;;15.29;32.31
79150;BME280;68563;45.644;13.782;2023-11-18T07:14:51;101559.66;;;15.02;31.67
79150;BME280;68563;45.644;13.782;2023-11-18T07:17:16;101559.75;;;14.97;32.41
79150;BME280;68563;45.644;13.782;2023-11-18T07:19:44;101563.44;;;14.84;33.60
79150;BME280;68563;45.644;13.782;2023-11-18T07:22:10;101570.75;;;14.59;35.04
79150;BME280;68563;45.644;13.782;2023-11-18T07:24:35;101574.63;;;14.30;35.57
79150;BME280;68563;45.644;13.782;2023-11-18T07:27:01;101580.09;;;14.13;35.81
79150;BME280;68563;45.644;13.782;2023-11-18T07:29:26;101582.16;;;13.86;35.65
79150;BME280;68563;45.644;13.782;2023-11-18T07:31:52;101574.72;;;13.50;35.55
79150;BME280;68563;45.644;13.782;2023-11-18T07:34:21;101598.16;;;13.49;36.54
79150;BME280;68563;45.644;13.782;2023-11-18T07:36:47;101600.00;;;13.34;36.88
79150;BME280;68563;45.644;13.782;2023-11-18T07:39:14;101610.44;;;13.30;37.43
79150;BME280;68563;45.644;13.782;2023-11-18T07:41:41;101603.63;;;13.19;37.59
79150;BME280;68563;45.644;13.782;2023-11-18T07:44:07;101598.47;;;13.13;37.65
79150;BME280;68563;45.644;13.782;2023-11-18T07:46:36;101604.50;;;13.18;37.47
79150;BME280;68563;45.644;13.782;2023-11-18T07:49:03;101604.53;;;13.12;38.63
79150;BME280;68563;45.644;13.782;2023-11-18T07:51:29;101600.19;;;13.13;38.90
79150;BME280;68563;45.644;13.782;2023-11-18T07:53:54;101595.06;;;13.06;38.56
79150;BME280;68563;45.644;13.782;2023-11-18T07:56:20;101601.09;;;13.10;37.98
79150;BME280;68563;45.644;13.782;2023-11-18T07:58:47;101598.63;;;12.93;38.26
79150;BME280;68563;45.644;13.782;2023-11-18T08:01:14;101599.47;;;12.97;38.23
79150;BME280;68563;45.644;13.782;2023-11-18T08:03:42;101598.69;;;12.82;38.32
79150;BME280;68563;45.644;13.782;2023-11-18T08:06:08;101609.13;;;12.79;38.70
79150;BME280;68563;45.644;13.782;2023-11-18T08:08:36;101610.03;;;12.70;38.96
79150;BME280;68563;45.644;13.782;2023-11-18T08:11:06;101611.00;;;12.58;39.79
79150;BME280;68563;45.644;13.782;2023-11-18T08:13:32;101617.06;;;12.57;39.62
79150;BME280;68563;45.644;13.782;2023-11-18T08:15:57;101617.06;;;12.62;39.94
79150;BME280;68563;45.644;13.782;2023-11-18T08:18:23;101611.84;;;12.60;40.36
79150;BME280;68563;45.644;13.782;2023-11-18T08:20:49;101614.44;;;12.62;40.17
79150;BME280;68563;45.644;13.782;2023-11-18T08:23:15;101620.50;;;12.61;40.53
79150;BME280;68563;45.644;13.782;2023-11-18T08:25:40;101611.84;;;12.62;40.55
79150;BME280;68563;45.644;13.782;2023-11-18T08:28:07;101606.63;;;12.64;40.56
79150;BME280;68563;45.644;13.782;2023-11-18T08:30:34;101621.38;;;12.61;40.57
79150;BME280;68563;45.644;13.782;2023-11-18T08:32:59;101602.34;;;12.53;41.06
79150;BME280;68563;45.644;13.782;2023-11-18T08:35:25;101615.31;;;12.59;41.13
79150;BME280;68563;45.644;13.782;2023-11-18T08:37:51;101619.59;;;12.67;44.81
79150;BME280;68563;45.644;13.782;2023-11-18T08:40:17;101622.19;;;12.67;41.13
79150;BME280;68563;45.644;13.782;2023-11-18T08:42:52;101623.97;;;12.65;40.98
79150;BME280;68563;45.644;13.782;2023-11-18T08:45:20;101616.19;;;12.60;41.58
79150;BME280;68563;45.644;13.782;2023-11-18T08:47:59;101627.44;;;12.64;41.67
79150;BME280;68563;45.644;13.782;2023-11-18T08:50:27;101625.69;;;12.66;41.86
79150;BME280;68563;45.644;13.782;2023-11-18T08:52:53;101620.50;;;12.66;41.86
79150;BME280;68563;45.644;13.782;2023-11-18T08:55:22;101622.19;;;12.67;41.76
79150;BME280;68563;45.644;13.782;2023-11-18T08:57:51;101615.31;;;12.63;41.72
79150;BME280;68563;45.644;13.782;2023-11-18T09:00:30;101620.50;;;12.63;41.70
79150;BME280;68563;45.644;13.782;2023-11-18T09:05:51;101617.91;;;12.59;41.13
79150;BME280;68563;45.644;13.782;2023-11-18T09:11:09;101630.00;;;12.65;40.68
79150;BME280;68563;45.644;13.782;2023-11-18T09:13:42;101631.75;;;12.65;41.55
79150;BME280;68563;45.644;13.782;2023-11-18T09:16:09;101633.44;;;12.69;41.30
79150;BME280;68563;45.644;13.782;2023-11-18T09:18:37;101633.44;;;12.69;39.87
79150;BME280;68563;45.644;13.782;2023-11-18T09:21:04;101633.47;;;12.67;40.31
79150;BME280;68563;45.644;13.782;2023-11-18T09:23:39;101644.72;;;12.68;40.52
79150;BME280;68563;45.644;13.782;2023-11-18T09:26:05;101636.94;;;12.66;39.60
79150;BME280;68563;45.644;13.782;2023-11-18T09:28:33;101649.91;;;12.71;39.74
79150;BME280;68563;45.644;13.782;2023-11-18T09:31:00;101642.16;;;12.65;39.98
79150;BME280;68563;45.644;13.782;2023-11-18T09:33:29;101643.81;;;12.70;39.66
79150;BME280;68563;45.644;13.782;2023-11-18T09:36:04;101645.53;;;12.73;38.57
79150;BME280;68563;45.644;13.782;2023-11-18T09:38:37;101639.47;;;12.74;38.85
79150;BME280;68563;45.644;13.782;2023-11-18T09:41:06;101632.56;;;12.71;36.21
79150;BME280;68563;45.644;13.782;2023-11-18T09:43:42;101629.13;;;12.71;36.07
79150;BME280;68563;45.644;13.782;2023-11-18T09:46:12;101623.91;;;12.71;35.20
79150;BME280;68563;45.644;13.782;2023-11-18T09:48:51;101621.31;;;12.71;35.17
79150;BME280;68563;45.644;13.782;2023-11-18T09:51:38;101620.44;;;12.73;35.98
79150;BME280;68563;45.644;13.782;2023-11-18T09:54:28;101626.47;;;12.74;35.75
79150;BME280;68563;45.644;13.782;2023-11-18T09:59:41;101614.34;;;12.73;35.93
79150;BME280;68563;45.644;13.782;2023-11-18T10:02:10;101628.22;;;12.75;36.20
79150;BME280;68563;45.644;13.782;2023-11-18T10:04:39;101626.47;;;12.77;35.34
79150;BME280;68563;45.644;13.782;2023-11-18T10:07:08;101616.97;;;12.74;35.73
79150;BME280;68563;45.644;13.782;2023-11-18T10:09:36;101627.34;;;12.79;36.01
79150;BME280;68563;45.644;13.782;2023-11-18T10:12:07;101628.13;;;12.86;40.54
79150;BME280;68563;45.644;13.782;2023-11-18T10:14:41;101627.28;;;12.85;38.36
79150;BME280;68563;45.644;13.782;2023-11-18T10:17:09;101637.66;;;12.88;37.84
79150;BME280;68563;45.644;13.782;2023-11-18T10:19:57;101637.66;;;12.88;37.79
79150;BME280;68563;45.644;13.782;2023-11-18T10:22:26;101641.13;;;12.87;38.35
79150;BME280;68563;45.644;13.782;2023-11-18T10:24:53;101638.50;;;12.87;38.23
79150;BME280;68563;45.644;13.782;2023-11-18T10:27:27;101634.22;;;12.86;38.31
79150;BME280;68563;45.644;13.782;2023-11-18T10:29:57;101634.22;;;12.86;38.83
79150;BME280;68563;45.644;13.782;2023-11-18T10:32:23;101621.19;;;12.88;38.95
79150;BME280;68563;45.644;13.782;2023-11-18T10:34:55;101597.78;;;12.89;38.72
79150;BME280;68563;45.644;13.782;2023-11-18T10:37:20;101604.72;;;12.87;38.45
79150;BME280;68563;45.644;13.782;2023-11-18T10:39:48;101602.09;;;12.92;38.81
79150;BME280;68563;45.644;13.782;2023-11-18T10:42:17;101597.75;;;12.91;39.48
79150;BME280;68563;45.644;13.782;2023-11-18T10:44:58;101601.22;;;12.93;39.60
79150;BME280;68563;45.644;13.782;2023-11-18T10:47:25;101600.38;;;12.92;39.02
79150;BME280;68563;45.644;13.782;2023-11-18T10:49:53;101596.88;;;12.95;39.04
79150;BME280;68563;45.644;13.782;2023-11-18T10:52:19;101589.94;;;12.94;39.63
79150;BME280;68563;45.644;13.782;2023-11-18T10:54:53;101592.56;;;12.94;39.03
79150;BME280;68563;45.644;13.782;2023-11-18T10:57:23;101595.16;;;12.94;39.08
79150;BME280;68563;45.644;13.782;2023-11-18T11:00:01;101596.88;;;12.97;39.06
79150;BME280;68563;45.644;13.782;2023-11-18T11:02:31;101602.91;;;12.97;38.67
79150;BME280;68563;45.644;13.782;2023-11-18T11:05:04;101603.78;;;12.98;38.17
79150;BME280;68563;45.644;13.782;2023-11-18T11:07:32;101594.31;;;12.90;37.81
79150;BME280;68563;45.644;13.782;2023-11-18T11:09:59;101596.00;;;12.95;38.07
79150;BME280;68563;45.644;13.782;2023-11-18T11:12:25;101598.56;;;12.99;37.91
79150;BME280;68563;45.644;13.782;2023-11-18T11:15:00;101583.88;;;12.95;37.76
79150;BME280;68563;45.644;13.782;2023-11-18T11:17:30;101602.03;;;13.01;38.06
79150;BME280;68563;45.644;13.782;2023-11-18T11:20:07;101567.50;;;12.82;38.52
79150;BME280;68563;45.644;13.782;2023-11-18T11:28:43;101595.06;;;13.06;38.96
79150;BME280;68563;45.644;13.782;2023-11-18T11:31:16;101603.72;;;13.08;38.48
79150;BME280;68563;45.644;13.782;2023-11-18T11:33:56;101599.34;;;13.09;38.71
79150;BME280;68563;45.644;13.782;2023-11-18T11:36:30;101594.09;;;13.17;37.47
79150;BME280;68563;45.644;13.782;2023-11-18T11:38:59;101595.78;;;13.22;37.48
79150;BME280;68563;45.644;13.782;2023-11-18T11:41:24;101584.53;;;13.22;37.29
79150;BME280;68563;45.644;13.782;2023-11-18T11:43:52;101581.94;;;13.20;38.39
79150;BME280;68563;45.644;13.782;2023-11-18T11:46:22;101577.59;;;13.19;39.72
79150;BME280;68563;45.644;13.782;2023-11-18T11:48:50;101588.00;;;13.19;38.79
79150;BME280;68563;45.644;13.782;2023-11-18T11:51:45;101597.50;;;13.23;37.82
79150;BME280;68563;45.644;13.782;2023-11-18T11:54:19;101586.25;;;13.20;37.69
79150;BME280;68563;45.644;13.782;2023-11-18T11:56:50;101581.06;;;13.21;36.97
79150;BME280;68563;45.644;13.782;2023-11-18T12:02:14;101593.09;;;13.29;39.04
79150;BME280;68563;45.644;13.782;2023-11-18T12:04:50;101592.28;;;13.27;38.81
79150;BME280;68563;45.644;13.782;2023-11-18T12:07:19;101606.06;;;13.33;39.61
79150;BME280;68563;45.644;13.782;2023-11-18T12:09:51;101590.50;;;13.29;39.90
79150;BME280;68563;45.644;13.782;2023-11-18T12:12:24;101601.78;;;13.31;39.73
79150;BME280;68563;45.644;13.782;2023-11-18T12:14:53;101590.50;;;13.32;39.70
79150;BME280;68563;45.644;13.782;2023-11-18T12:17:22;101576.72;;;13.19;40.60
79150;BME280;68563;45.644;13.782;2023-11-18T12:19:57;101592.25;;;13.28;39.43
79150;BME280;68563;45.644;13.782;2023-11-18T12:23:03;101602.66;;;13.31;39.40
79150;BME280;68563;45.644;13.782;2023-11-18T12:25:40;101590.50;;;13.29;38.80
79150;BME280;68563;45.644;13.782;2023-11-18T12:28:10;101570.69;;;13.18;39.00
79150;BME280;68563;45.644;13.782;2023-11-18T12:33:03;101588.75;;;13.31;39.45
79150;BME280;68563;45.644;13.782;2023-11-18T12:44:15;101582.72;;;13.30;40.03
79150;BME280;68563;45.644;13.782;2023-11-18T12:46:54;101593.94;;;13.32;40.35
79150;BME280;68563;45.644;13.782;2023-11-18T12:49:23;101601.72;;;13.37;41.59
79150;BME280;68563;45.644;13.782;2023-11-18T12:51:53;101593.06;;;13.33;41.45
79150;BME280;68563;45.644;13.782;2023-11-18T12:54:20;101599.09;;;13.37;41.23
79150;BME280;68563;45.644;13.782;2023-11-18T12:56:47;101588.75;;;13.31;41.15
79150;BME280;68563;45.644;13.782;2023-11-18T12:59:18;101598.28;;;13.35;41.56
79150;BME280;68563;45.644;13.782;2023-11-18T13:01:49;101602.59;;;13.42;45.85
79150;BME280;68563;45.644;13.782;2023-11-18T13:04:32;101593.88;;;13.45;42.00
79150;BME280;68563;45.644;13.782;2023-11-18T13:07:00;101605.94;;;13.50;41.69
79150;BME280;68563;45.644;13.782;2023-11-18T13:09:26;101601.63;;;13.48;41.65
79150;BME280;68563;45.644;13.782;2023-11-18T13:11:57;101601.63;;;13.49;41.55
79150;BME280;68563;45.644;13.782;2023-11-18T13:14:27;101608.56;;;13.52;41.78
79150;BME280;68563;45.644;13.782;2023-11-18T13:16:54;101605.97;;;13.49;42.02
79150;BME280;68563;45.644;13.782;2023-11-18T13:19:29;101605.97;;;13.49;42.00